Time;durP1;ratioP1;P1;durP2;ratioP2;P2;SDS_P1;SDS_P2;PMS_P1;PMS_P2;Temp;Humidity;BMP_temperature;BMP_pressure;BME280_temperature;BME280_humidity;BME280_pressure;Samples;Min_cycle;Max_cycle;Signal;HPM_P1;HPM_P2
2021/08/04 00:01:23;;;;;;;7.00;5.90;;;;;;;15.88;89.96;100625.31;1731385;81;22171;-71
2021/08/04 00:03:49;;;;;;;7.00;5.90;;;;;;;15.87;89.95;100631.80;1721916;80;21716;-72
2021/08/04 00:06:17;;;;;;;6.47;5.87;;;;;;;15.85;89.91;100635.31;1723548;81;21799;-71
2021/08/04 00:08:45;;;;;;;6.80;5.70;;;;;;;15.82;89.91;100637.79;1741321;81;21693;-72
2021/08/04 00:11:12;;;;;;;6.97;6.10;;;;;;;15.79;89.96;100635.67;1734139;80;21932;-73
2021/08/04 00:13:41;;;;;;;6.23;5.63;;;;;;;15.76;90.02;100634.38;1731666;81;22267;-73
2021/08/04 00:16:09;;;;;;;6.57;5.80;;;;;;;15.71;90.10;100635.23;1724223;81;23078;-72
2021/08/04 00:18:36;;;;;;;7.00;6.30;;;;;;;15.64;90.52;100651.47;1729925;81;21702;-73
2021/08/04 00:21:03;;;;;;;7.70;6.90;;;;;;;15.64;90.52;100651.47;1741932;81;21795;-74
2021/08/04 00:23:30;;;;;;;9.00;6.50;;;;;;;15.61;90.61;100650.14;1721488;80;21750;-73
2021/08/04 00:25:57;;;;;;;7.50;6.70;;;;;;;15.57;91.00;100645.08;1740519;81;22200;-72
2021/08/04 00:28:23;;;;;;;7.30;6.60;;;;;;;15.55;91.06;100648.59;1727408;81;21588;-74
2021/08/04 00:30:50;;;;;;;8.00;6.83;;;;;;;15.54;91.16;100652.39;1752815;80;21778;-74
2021/08/04 00:33:17;;;;;;;7.87;6.93;;;;;;;15.53;91.32;100645.93;1727339;81;21812;-75
2021/08/04 00:35:44;;;;;;;7.53;6.70;;;;;;;15.53;91.32;100645.93;1728048;81;22260;-75
2021/08/04 00:38:12;;;;;;;8.00;7.20;;;;;;;15.47;91.55;100649.25;1745442;80;22235;-74
2021/08/04 00:40:40;;;;;;;7.63;6.87;;;;;;;15.47;91.55;100649.25;1728732;81;22633;-73
2021/08/04 00:43:07;;;;;;;8.03;6.80;;;;;;;15.47;91.58;100651.94;1727157;81;21764;-75
2021/08/04 00:45:35;;;;;;;7.50;6.80;;;;;;;15.45;91.74;100643.34;1725816;82;21847;-76
2021/08/04 00:48:03;;;;;;;9.57;7.40;;;;;;;15.44;91.59;100648.47;1728289;81;22043;-75
2021/08/04 00:50:33;;;;;;;7.53;6.80;;;;;;;15.44;91.59;100656.55;1716238;82;21929;-77
2021/08/04 00:53:22;;;;;;;9.35;7.05;;;;;;;15.43;91.74;100655.75;1726801;81;28439;-75
2021/08/04 00:55:51;;;;;;;9.83;6.87;;;;;;;15.42;91.81;100654.13;1715430;81;21064;-74
2021/08/04 00:58:36;;;;;;;9.47;7.53;;;;;;;15.37;91.86;100654.75;1740233;81;21833;-74
2021/08/04 01:01:20;;;;;;;8.00;6.70;;;;;;;15.31;92.03;100661.27;1737140;80;21613;-73
2021/08/04 01:03:51;;;;;;;8.53;6.87;;;;;;;15.28;92.18;100657.80;1722245;81;21756;-73
2021/08/04 01:06:28;;;;;;;10.13;6.60;;;;;;;15.28;92.18;100657.80;1727346;81;21730;-72
2021/08/04 01:08:57;;;;;;;9.87;7.13;;;;;;;15.25;92.09;100670.73;1750522;81;21552;-72
2021/08/04 01:11:36;;;;;;;9.43;6.90;;;;;;;15.21;91.87;100660.83;1735961;80;21866;-72
2021/08/04 01:14:06;;;;;;;8.87;6.80;;;;;;;15.18;92.09;100662.20;1724384;81;21894;-73
2021/08/04 01:16:40;;;;;;;9.03;7.87;;;;;;;15.15;92.08;100662.77;1738971;80;21803;-72
2021/08/04 01:19:32;;;;;;;9.47;7.37;;;;;;;15.13;92.09;100655.52;1730478;82;21466;-72
2021/08/04 01:22:09;;;;;;;;;;;;;;;15.13;92.09;100655.52;1721105;81;22079;-73
2021/08/04 01:24:46;;;;;;;10.13;6.70;;;;;;;15.05;92.12;100659.38;1724996;81;21051;-73
2021/08/04 01:27:13;;;;;;;7.80;6.57;;;;;;;14.99;92.26;100666.69;1717151;81;22189;-73
2021/08/04 01:29:41;;;;;;;7.27;6.57;;;;;;;14.94;91.77;100664.06;1740620;81;21592;-73
2021/08/04 01:32:08;;;;;;;7.00;6.30;;;;;;;14.94;91.77;100657.34;1739595;80;21716;-72
2021/08/04 01:34:37;;;;;;;8.57;6.33;;;;;;;14.92;91.82;100654.13;1743766;80;21729;-74
2021/08/04 01:39:27;;;;;;;6.90;5.90;;;;;;;14.91;92.13;100653.33;1805249;78;21938;-72
2021/08/04 01:41:56;;;;;;;8.93;6.63;;;;;;;14.83;92.20;100654.47;1785676;79;20986;-72
2021/08/04 01:44:23;;;;;;;9.93;7.20;;;;;;;14.75;92.38;100647.83;1774982;79;21752;-72
2021/08/04 01:46:50;;;;;;;8.37;6.83;;;;;;;14.74;92.81;100651.58;1780674;80;21718;-73
2021/08/04 01:49:18;;;;;;;7.50;6.60;;;;;;;14.74;92.81;100651.58;1775139;79;22112;-72
2021/08/04 01:51:44;;;;;;;7.30;6.30;;;;;;;14.76;92.67;100650.22;1731986;80;22131;-72
2021/08/04 01:54:12;;;;;;;8.13;6.30;;;;;;;14.71;93.00;100648.94;1775071;79;21549;-72
2021/08/04 01:56:40;;;;;;;8.17;5.50;;;;;;;14.71;93.00;100648.94;1778198;79;21477;-71
2021/08/04 01:59:06;;;;;;;10.07;6.57;;;;;;;14.71;92.99;100649.48;1769499;79;21506;-72
2021/08/04 02:01:36;;;;;;;6.73;6.03;;;;;;;14.66;93.16;100650.30;1762157;79;21627;-73
2021/08/04 02:04:04;;;;;;;7.40;6.33;;;;;;;14.66;93.16;100650.30;1779202;80;21920;-72
2021/08/04 02:06:53;;;;;;;6.83;5.90;;;;;;;14.64;93.17;100648.46;1782353;79;21331;-72
2021/08/04 02:09:52;;;;;;;6.80;6.10;;;;;;;14.64;93.32;100648.46;1774260;79;21574;-70
2021/08/04 02:12:20;;;;;;;7.10;5.93;;;;;;;14.64;93.32;100648.46;1780118;80;21477;-72
2021/08/04 02:15:03;;;;;;;9.00;6.43;;;;;;;14.66;93.35;100654.88;1778400;79;21827;-71
2021/08/04 02:17:37;;;;;;;9.40;6.87;;;;;;;14.66;93.35;100654.88;1779989;79;21707;-71
2021/08/04 02:20:38;;;;;;;7.57;6.17;;;;;;;14.63;93.48;100664.31;1778230;78;21402;-71
2021/08/04 02:23:14;;;;;;;8.40;7.20;;;;;;;14.63;93.48;100664.31;1784385;80;21457;-71
2021/08/04 02:26:00;;;;;;;8.70;7.47;;;;;;;14.60;93.11;100655.46;1773728;78;21592;-71
2021/08/04 02:28:31;;;;;;;7.83;7.03;;;;;;;14.59;92.89;100664.61;1780132;80;21401;-69
2021/08/04 02:30:58;;;;;;;7.47;6.77;;;;;;;14.59;92.89;100664.61;1778760;79;21511;-71
2021/08/04 02:33:24;;;;;;;8.77;7.97;;;;;;;14.57;93.19;100660.05;1771553;80;21337;-71
2021/08/04 02:35:52;;;;;;;8.13;7.40;;;;;;;14.55;93.59;100666.27;1772123;79;21314;-71
2021/08/04 02:38:18;;;;;;;7.90;7.20;;;;;;;14.55;93.69;100663.58;1774865;80;21548;-71
2021/08/04 02:40:46;;;;;;;7.90;7.20;;;;;;;14.55;93.69;100663.58;1776468;79;21378;-71
2021/08/04 02:43:12;;;;;;;7.67;6.97;;;;;;;14.54;93.39;100663.30;1784131;80;21539;-71
2021/08/04 02:45:39;;;;;;;7.57;6.87;;;;;;;14.53;93.44;100665.19;1756132;79;21499;-71
2021/08/04 02:48:06;;;;;;;7.53;6.73;;;;;;;14.53;93.55;100665.19;1779003;79;21532;-72
2021/08/04 02:50:37;;;;;;;7.07;6.37;;;;;;;14.53;93.37;100671.11;1766042;80;21570;-72
2021/08/04 02:53:05;;;;;;;6.30;5.70;;;;;;;14.53;93.37;100671.11;1756476;81;21518;-71
2021/08/04 02:55:31;;;;;;;6.60;6.00;;;;;;;14.53;93.48;100677.83;1746845;80;21053;-71
2021/08/04 02:57:58;;;;;;;6.57;5.97;;;;;;;14.56;93.85;100683.19;1788333;80;21888;-71
2021/08/04 03:00:25;;;;;;;7.40;6.70;;;;;;;14.56;93.85;100683.19;1776196;80;21529;-72
2021/08/04 03:02:51;;;;;;;7.50;6.80;;;;;;;14.53;93.82;100681.31;1761932;80;21413;-71
2021/08/04 03:05:19;;;;;;;7.03;6.43;;;;;;;14.59;93.95;100684.78;1784376;78;21457;-72
2021/08/04 03:07:46;;;;;;;7.23;6.53;;;;;;;14.69;94.05;100688.73;1778498;79;21988;-71
2021/08/04 03:10:13;;;;;;;6.87;6.27;;;;;;;14.69;94.05;100688.73;1779939;80;21639;-71
2021/08/04 03:12:41;;;;;;;6.70;6.10;;;;;;;14.73;94.60;100684.93;1779326;79;21502;-71
2021/08/04 03:15:09;;;;;;;6.87;6.17;;;;;;;14.76;94.21;100681.14;1776127;79;21520;-71
2021/08/04 03:17:37;;;;;;;6.57;5.97;;;;;;;14.89;94.16;100685.61;1777739;79;21574;-72
2021/08/04 03:20:06;;;;;;;6.80;6.10;;;;;;;14.96;94.30;100690.11;1786197;80;21625;-71
2021/08/04 03:22:33;;;;;;;6.73;6.10;;;;;;;14.96;94.30;100690.11;1775027;79;21549;-72
2021/08/04 03:25:01;;;;;;;7.03;5.70;;;;;;;14.97;94.20;100690.37;1784532;79;22264;-71
2021/08/04 03:27:29;;;;;;;6.60;6.00;;;;;;;15.13;94.26;100691.03;1783501;78;21837;-71
2021/08/04 03:29:55;;;;;;;7.17;6.47;;;;;;;15.13;94.26;100691.03;1789156;78;21703;-70
2021/08/04 03:32:22;;;;;;;6.50;5.90;;;;;;;15.17;94.28;100692.89;1781945;78;21725;-72
2021/08/04 03:34:49;;;;;;;7.10;6.40;;;;;;;15.27;94.28;100693.85;1776721;78;22448;-72
2021/08/04 03:37:16;;;;;;;7.47;6.77;;;;;;;15.35;94.29;100695.94;1782246;79;21739;-71
2021/08/04 03:39:42;;;;;;;7.57;6.83;;;;;;;15.43;94.27;100697.98;1814069;77;21712;-72
2021/08/04 03:42:09;;;;;;;7.80;6.97;;;;;;;15.52;94.23;100693.59;1803082;78;21695;-72
2021/08/04 03:44:38;;;;;;;7.80;7.00;;;;;;;15.62;94.18;100699.41;1808581;77;21661;-71
2021/08/04 03:47:05;;;;;;;7.70;6.97;;;;;;;15.72;94.07;100695.27;1811350;77;22338;-71
2021/08/04 03:49:32;;;;;;;8.07;6.87;;;;;;;15.81;93.91;100700.28;1800307;77;21655;-72
2021/08/04 03:51:58;;;;;;;7.03;6.37;;;;;;;15.87;93.66;100699.69;1807754;77;21723;-72
2021/08/04 03:54:25;;;;;;;7.67;6.97;;;;;;;15.94;93.42;100706.86;1804051;77;22283;-73
2021/08/04 03:56:52;;;;;;;7.90;7.10;;;;;;;16.02;93.22;100710.24;1817892;77;21740;-72
2021/08/04 03:59:19;;;;;;;7.70;6.90;;;;;;;16.12;93.00;100695.31;1812210;77;21716;-72
2021/08/04 04:01:45;;;;;;;8.13;7.10;;;;;;;16.21;92.62;100708.13;1813420;78;21488;-71
2021/08/04 04:04:12;;;;;;;9.60;6.97;;;;;;;16.45;92.84;100716.13;1814819;78;20983;-70
2021/08/04 04:06:38;;;;;;;7.47;6.67;;;;;;;16.45;92.84;100716.13;1810723;77;21081;-71
2021/08/04 04:09:05;;;;;;;9.07;7.53;;;;;;;16.58;92.44;100715.39;1809410;77;21065;-71
2021/08/04 04:11:33;;;;;;;8.77;7.50;;;;;;;16.70;92.38;100710.91;1810515;77;20952;-71
2021/08/04 04:14:00;;;;;;;8.93;7.57;;;;;;;16.84;92.10;100714.48;1780956;78;21128;-72
2021/08/04 04:16:27;;;;;;;9.37;7.77;;;;;;;17.01;91.88;100715.27;1812368;77;22255;-73
2021/08/04 04:18:53;;;;;;;8.60;7.70;;;;;;;17.15;91.63;100720.17;1808604;77;21025;-72
2021/08/04 04:21:20;;;;;;;11.13;8.57;;;;;;;17.32;91.29;100716.90;1817894;78;20995;-70
2021/08/04 04:23:47;;;;;;;8.60;7.70;;;;;;;17.47;90.87;100714.45;1812278;77;21026;-70
2021/08/04 04:26:15;;;;;;;10.20;8.07;;;;;;;17.64;90.37;100723.34;1811968;77;21031;-70
2021/08/04 04:28:43;;;;;;;12.27;8.30;;;;;;;17.77;89.56;100719.86;1810964;77;21066;-69
2021/08/04 04:31:10;;;;;;;11.07;8.47;;;;;;;17.89;88.70;100717.44;1816847;78;20978;-70
2021/08/04 04:33:36;;;;;;;11.33;8.30;;;;;;;18.01;88.02;100724.48;1806724;77;21474;-70
2021/08/04 04:36:05;;;;;;;9.10;8.20;;;;;;;18.18;87.53;100716.30;1784032;78;21170;-71
2021/08/04 04:38:32;;;;;;;9.27;7.90;;;;;;;18.35;87.10;100715.64;1780924;78;21334;-71
2021/08/04 04:41:00;;;;;;;9.70;8.03;;;;;;;18.49;86.53;100713.16;1775086;80;21027;-71
2021/08/04 04:43:26;;;;;;;9.37;7.83;;;;;;;18.64;86.07;100704.42;1795396;78;21337;-70
2021/08/04 04:45:52;;;;;;;11.30;7.57;;;;;;;18.78;85.37;100707.09;1782271;79;21070;-71
2021/08/04 04:48:19;;;;;;;9.27;7.43;;;;;;;18.92;84.79;100714.05;1780102;78;21042;-71
2021/08/04 04:50:46;;;;;;;8.87;8.00;;;;;;;19.05;84.19;100719.15;1780071;79;21534;-71
2021/08/04 04:53:13;;;;;;;9.83;7.20;;;;;;;19.14;83.43;100721.88;1774470;80;20944;-71
2021/08/04 04:55:41;;;;;;;8.97;7.90;;;;;;;19.25;82.52;100731.36;1777644;79;21026;-70
2021/08/04 04:58:08;;;;;;;8.77;7.23;;;;;;;19.34;81.60;100736.80;1774512;78;21573;-70
2021/08/04 05:00:35;;;;;;;8.37;7.30;;;;;;;19.44;81.25;100740.59;1778269;80;21062;-70
2021/08/04 05:03:01;;;;;;;10.03;7.13;;;;;;;19.56;81.07;100739.45;1789154;80;22109;-70
2021/08/04 05:05:28;;;;;;;9.13;7.50;;;;;;;19.68;80.03;100738.91;1774118;79;21656;-72
2021/08/04 05:07:55;;;;;;;9.73;7.53;;;;;;;19.79;79.30;100740.20;1780188;80;21031;-70
2021/08/04 05:10:23;;;;;;;8.37;7.47;;;;;;;19.95;78.36;100737.07;1776473;79;21059;-70
2021/08/04 05:12:50;;;;;;;9.07;7.97;;;;;;;20.13;77.94;100730.55;1779112;79;21010;-70
2021/08/04 05:15:16;;;;;;;8.77;7.13;;;;;;;20.33;77.34;100733.99;1780119;78;21132;-71
2021/08/04 05:17:43;;;;;;;10.03;7.57;;;;;;;20.56;77.13;100724.38;1776772;80;21019;-71
2021/08/04 05:20:11;;;;;;;11.13;7.73;;;;;;;20.78;76.38;100722.84;1780518;79;21625;-70
2021/08/04 05:22:38;;;;;;;9.67;7.10;;;;;;;21.01;75.79;100724.02;1773394;80;21490;-70
2021/08/04 05:25:06;;;;;;;10.33;6.70;;;;;;;21.17;73.83;100725.66;1787145;79;21105;-70
2021/08/04 05:27:33;;;;;;;10.17;6.67;;;;;;;21.30;72.52;100724.66;1770818;80;21126;-72
2021/08/04 05:30:02;;;;;;;9.97;7.10;;;;;;;21.39;70.17;100727.35;1780926;80;21067;-70
2021/08/04 05:32:29;;;;;;;9.20;6.70;;;;;;;21.45;68.95;100735.00;1774584;79;21415;-70
2021/08/04 05:34:56;;;;;;;8.97;6.17;;;;;;;21.52;68.29;100738.59;1780868;78;21015;-71
2021/08/04 05:37:23;;;;;;;11.97;6.23;;;;;;;21.56;68.33;100746.33;1772855;78;21047;-71
2021/08/04 05:39:50;;;;;;;9.63;6.60;;;;;;;21.58;68.37;100740.55;1780411;79;21097;-70
2021/08/04 05:42:16;;;;;;;11.43;7.07;;;;;;;21.59;68.18;100740.81;1776192;79;20952;-70
2021/08/04 05:44:43;;;;;;;12.93;6.77;;;;;;;21.54;67.66;100740.41;1774865;79;21507;-72
2021/08/04 05:47:12;;;;;;;9.07;6.40;;;;;;;21.52;67.26;100746.19;1774443;79;21575;-71
2021/08/04 05:49:39;;;;;;;9.23;6.87;;;;;;;21.55;67.26;100748.79;1776273;79;21558;-71
2021/08/04 05:52:07;;;;;;;9.10;7.37;;;;;;;21.59;67.36;100740.23;1772451;79;21556;-71
2021/08/04 05:54:34;;;;;;;8.57;6.70;;;;;;;21.64;67.06;100740.61;1787142;79;21047;-71
2021/08/04 05:57:00;;;;;;;9.87;7.10;;;;;;;21.71;66.79;100737.60;1780644;80;21430;-70
2021/08/04 05:59:27;;;;;;;9.47;6.40;;;;;;;21.74;65.98;100734.23;1777979;79;21055;-70
2021/08/04 06:01:54;;;;;;;7.97;5.67;;;;;;;21.80;65.63;100730.77;1773460;80;21065;-70
2021/08/04 06:04:20;;;;;;;7.13;5.70;;;;;;;21.87;64.70;100739.77;1775644;79;21515;-68
2021/08/04 06:06:48;;;;;;;9.13;6.10;;;;;;;21.92;63.99;100743.11;1779720;79;21027;-71
2021/08/04 06:09:15;;;;;;;8.50;5.93;;;;;;;21.99;63.45;100752.11;1775793;79;21098;-71
2021/08/04 06:11:44;;;;;;;8.80;5.20;;;;;;;22.11;63.43;100743.22;1744607;80;21070;-72
2021/08/04 06:14:11;;;;;;;8.60;5.77;;;;;;;22.25;62.79;100739.73;1779122;79;21081;-71
2021/08/04 06:16:40;;;;;;;8.47;5.37;;;;;;;22.34;62.12;100740.47;1779352;79;21288;-72
2021/08/04 06:19:08;;;;;;;7.93;5.83;;;;;;;22.46;62.17;100745.16;1803941;78;21058;-71
2021/08/04 06:21:35;;;;;;;7.37;5.10;;;;;;;22.57;62.62;100747.70;1770908;78;21070;-70
2021/08/04 06:24:01;;;;;;;6.63;5.90;;;;;;;22.69;61.70;100743.68;1794225;78;21016;-71
2021/08/04 06:26:28;;;;;;;7.27;5.33;;;;;;;22.78;61.68;100749.06;1753044;79;21126;-71
2021/08/04 06:28:55;;;;;;;6.70;5.27;;;;;;;22.85;61.33;100747.95;1811885;77;21176;-71
2021/08/04 06:31:22;;;;;;;8.13;5.90;;;;;;;22.92;60.85;100744.67;1813300;78;20999;-71
2021/08/04 06:33:50;;;;;;;7.63;5.30;;;;;;;22.98;60.40;100743.94;1810623;77;21451;-72
2021/08/04 06:36:16;;;;;;;8.53;5.10;;;;;;;23.09;60.00;100737.71;1791520;79;21062;-71
2021/08/04 06:38:43;;;;;;;8.43;5.70;;;;;;;23.23;59.71;100744.78;1786363;78;21128;-71
2021/08/04 06:41:10;;;;;;;6.20;5.17;;;;;;;23.36;59.75;100738.21;1770654;79;21511;-71
2021/08/04 06:43:37;;;;;;;5.77;4.90;;;;;;;23.50;59.11;100739.27;1789184;78;21039;-72
2021/08/04 06:46:14;;;;;;;6.13;4.97;;;;;;;23.60;58.53;100740.97;1793395;78;21569;-71
2021/08/04 06:48:42;;;;;;;7.10;5.03;;;;;;;23.72;58.19;100742.92;1785968;78;21034;-70
2021/08/04 06:51:11;;;;;;;7.47;4.77;;;;;;;23.81;56.24;100736.79;1772897;79;21042;-71
2021/08/04 06:53:38;;;;;;;5.13;3.97;;;;;;;23.88;56.60;100744.39;1794932;79;21259;-71
2021/08/04 06:56:05;;;;;;;5.60;4.30;;;;;;;23.92;55.11;100739.84;1796858;79;21031;-72
2021/08/04 06:58:31;;;;;;;8.50;4.30;;;;;;;23.99;55.20;100743.38;1786718;78;21086;-72
2021/08/04 07:00:58;;;;;;;8.17;4.37;;;;;;;24.06;54.62;100738.14;1783641;78;21097;-73
2021/08/04 07:03:25;;;;;;;8.03;4.60;;;;;;;24.20;54.67;100739.13;1786085;79;21074;-74
2021/08/04 07:05:52;;;;;;;5.50;3.40;;;;;;;24.28;54.18;100739.01;1769062;79;21135;-72
2021/08/04 07:08:19;;;;;;;6.70;3.60;;;;;;;24.35;52.71;100734.33;1773418;79;22244;-74
2021/08/04 07:10:48;;;;;;;5.73;3.90;;;;;;;24.32;51.86;100735.80;1806985;78;21081;-72
2021/08/04 07:13:15;;;;;;;7.17;3.30;;;;;;;24.37;51.76;100738.06;1766224;80;21022;-73
2021/08/04 07:15:42;;;;;;;6.37;3.87;;;;;;;24.43;49.86;100737.50;1772258;79;21075;-72
2021/08/04 07:18:09;;;;;;;6.13;3.20;;;;;;;24.47;49.25;100737.02;1774684;79;21150;-71
2021/08/04 07:20:38;;;;;;;5.77;3.40;;;;;;;24.53;48.68;100737.01;1785659;79;21085;-71
2021/08/04 07:23:05;;;;;;;4.67;3.50;;;;;;;24.53;47.40;100738.95;1787320;79;21180;-72
2021/08/04 07:25:32;;;;;;;5.03;3.60;;;;;;;24.54;49.41;100734.49;1781456;79;21563;-70
2021/08/04 07:27:59;;;;;;;5.47;3.50;;;;;;;24.62;50.06;100731.98;1787906;79;21030;-72
2021/08/04 07:30:26;;;;;;;4.40;3.30;;;;;;;24.61;50.25;100737.99;1786160;79;20971;-71
2021/08/04 07:32:52;;;;;;;5.73;3.60;;;;;;;24.66;49.49;100730.14;1795860;79;21034;-71
2021/08/04 07:35:19;;;;;;;6.70;3.20;;;;;;;24.75;49.78;100736.25;1789028;79;21080;-71
2021/08/04 07:37:46;;;;;;;5.90;3.40;;;;;;;24.83;49.27;100727.09;1787139;79;21062;-71
2021/08/04 07:40:14;;;;;;;4.87;3.33;;;;;;;24.92;48.23;100719.53;1790307;79;21033;-75
2021/08/04 07:42:41;;;;;;;5.43;3.27;;;;;;;25.00;48.16;100718.56;1798985;78;21730;-73
2021/08/04 07:45:08;;;;;;;6.37;3.27;;;;;;;25.11;46.64;100726.27;1784807;79;21047;-70
2021/08/04 07:47:35;;;;;;;4.73;3.20;;;;;;;25.17;47.17;100724.33;1792336;79;21592;-70
2021/08/04 07:50:03;;;;;;;4.83;3.40;;;;;;;25.20;47.04;100725.54;1784893;79;21022;-70
2021/08/04 07:52:30;;;;;;;4.77;2.83;;;;;;;25.17;46.38;100720.77;1776192;78;21145;-70
2021/08/04 07:54:57;;;;;;;4.67;2.73;;;;;;;25.15;46.00;100732.66;1783416;79;21200;-70
2021/08/04 07:57:23;;;;;;;3.97;2.43;;;;;;;25.17;45.30;100723.51;1787939;79;21027;-70
2021/08/04 07:59:50;;;;;;;4.07;2.87;;;;;;;25.18;43.81;100723.75;1781977;78;21530;-70
2021/08/04 08:02:16;;;;;;;4.10;2.60;;;;;;;25.16;44.21;100719.98;1788849;79;21149;-70
2021/08/04 08:04:42;;;;;;;3.90;2.07;;;;;;;25.21;42.85;100718.95;1778338;79;21204;-71
2021/08/04 08:07:09;;;;;;;3.33;2.10;;;;;;;25.24;41.71;100724.50;1781508;78;21115;-71
2021/08/04 08:09:36;;;;;;;3.97;1.87;;;;;;;25.34;41.97;100721.81;1786591;78;21089;-70
2021/08/04 08:12:04;;;;;;;3.13;2.00;;;;;;;25.49;41.08;100721.00;1786517;78;21555;-70
2021/08/04 08:14:31;;;;;;;3.87;2.00;;;;;;;25.61;41.13;100726.95;1797450;79;21116;-71
2021/08/04 08:16:59;;;;;;;3.33;1.80;;;;;;;25.67;40.65;100718.70;1778451;78;21093;-71
2021/08/04 08:19:25;;;;;;;4.60;1.60;;;;;;;25.78;39.15;100720.89;1782026;79;22106;-69
2021/08/04 08:21:53;;;;;;;4.17;1.77;;;;;;;25.89;38.39;100717.25;1785644;78;21062;-70
2021/08/04 08:24:21;;;;;;;3.97;1.57;;;;;;;25.98;37.57;100716.28;1785493;78;21584;-70
2021/08/04 08:26:49;;;;;;;4.73;1.70;;;;;;;26.05;36.90;100718.59;1789566;79;21046;-72
2021/08/04 08:29:16;;;;;;;3.40;1.50;;;;;;;26.08;36.71;100715.13;1787635;79;21057;-70
2021/08/04 08:31:44;;;;;;;3.20;1.70;;;;;;;26.14;36.52;100707.44;1782502;78;21545;-70
2021/08/04 08:34:10;;;;;;;7.30;2.00;;;;;;;26.17;36.04;100703.98;1781144;79;21156;-71
2021/08/04 08:36:37;;;;;;;4.10;1.80;;;;;;;26.19;35.91;100707.95;1769661;78;21059;-72
2021/08/04 08:39:07;;;;;;;2.80;1.60;;;;;;;26.28;35.69;100711.84;1793736;79;21062;-70
2021/08/04 08:41:33;;;;;;;3.50;1.90;;;;;;;26.27;35.30;100702.63;1788855;78;21082;-70
2021/08/04 08:44:02;;;;;;;5.23;1.83;;;;;;;26.30;35.78;100699.96;1785804;79;21117;-70
2021/08/04 08:46:31;;;;;;;4.90;2.37;;;;;;;26.45;37.02;100698.28;1794214;78;21118;-70
2021/08/04 08:48:58;;;;;;;4.13;2.17;;;;;;;26.52;35.17;100692.19;1798360;78;21015;-70
2021/08/04 08:51:25;;;;;;;3.03;1.80;;;;;;;26.50;36.37;100689.03;1787860;78;21073;-70
2021/08/04 08:53:52;;;;;;;4.07;2.33;;;;;;;26.57;36.20;100689.16;1767746;78;21693;-70
2021/08/04 08:56:19;;;;;;;5.77;2.23;;;;;;;26.73;37.16;100684.38;1773728;79;22138;-70
2021/08/04 08:58:48;;;;;;;3.60;2.07;;;;;;;26.78;34.75;100677.80;1772311;79;21004;-70
2021/08/04 09:01:15;;;;;;;3.20;2.03;;;;;;;26.79;33.84;100679.41;1769468;79;21066;-70
2021/08/04 09:03:41;;;;;;;3.20;2.03;;;;;;;26.79;34.12;100671.19;1780748;79;21455;-71
2021/08/04 09:06:09;;;;;;;3.97;1.60;;;;;;;26.86;35.85;100676.20;1819344;78;21553;-70
2021/08/04 09:08:37;;;;;;;2.90;1.80;;;;;;;26.97;36.23;100672.85;1806233;78;21143;-71
2021/08/04 09:11:17;;;;;;;3.43;2.07;;;;;;;27.11;35.84;100678.56;1822037;77;20998;-72
2021/08/04 09:13:46;;;;;;;3.83;2.10;;;;;;;27.19;34.47;100678.94;1742777;79;21491;-70
2021/08/04 09:16:16;;;;;;;3.53;1.97;;;;;;;27.15;34.76;100681.39;1787344;79;20964;-70
2021/08/04 09:18:49;;;;;;;4.23;2.20;;;;;;;27.20;35.31;100677.77;1818710;78;21042;-70
2021/08/04 09:21:16;;;;;;;3.23;2.23;;;;;;;27.26;34.45;100676.89;1822346;77;21393;-71
2021/08/04 09:23:49;;;;;;;3.90;2.20;;;;;;;27.26;33.54;100673.56;1809681;78;21024;-71
2021/08/04 09:26:18;;;;;;;3.80;2.20;;;;;;;27.24;34.48;100671.76;1760666;80;21095;-72
2021/08/04 09:29:07;;;;;;;4.00;2.00;;;;;;;27.30;34.14;100674.41;1817990;78;20987;-70
2021/08/04 09:31:54;;;;;;;4.10;2.20;;;;;;;27.33;34.64;100664.08;1774283;80;21034;-71
2021/08/04 09:34:41;;;;;;;3.00;1.90;;;;;;;27.38;33.78;100664.91;1786191;79;21892;-70
2021/08/04 09:37:16;;;;;;;3.20;1.87;;;;;;;27.36;32.91;100666.67;1770932;80;21046;-70
2021/08/04 09:39:47;;;;;;;3.33;2.10;;;;;;;27.30;32.98;100673.03;1806560;78;20987;-70
2021/08/04 09:42:13;;;;;;;3.93;2.30;;;;;;;27.21;33.32;100673.86;1806956;77;21010;-70
2021/08/04 09:44:54;;;;;;;3.20;2.20;;;;;;;27.15;34.28;100675.36;1813384;77;21055;-70
2021/08/04 09:47:20;;;;;;;5.10;2.67;;;;;;;27.16;34.17;100667.92;1810837;77;21979;-71
2021/08/04 09:50:05;;;;;;;3.87;1.97;;;;;;;27.13;35.42;100668.06;1791688;78;20999;-70
2021/08/04 09:52:32;;;;;;;4.83;2.27;;;;;;;27.29;34.64;100663.82;1809966;77;21078;-71
2021/08/04 09:55:15;;;;;;;5.40;2.50;;;;;;;27.44;34.64;100656.00;1808332;77;20980;-70
2021/08/04 09:57:47;;;;;;;4.47;2.10;;;;;;;27.52;33.88;100659.66;1815213;77;21017;-69
2021/08/04 10:00:16;;;;;;;4.50;2.20;;;;;;;27.58;35.08;100660.93;1810197;77;21118;-70
2021/08/04 10:02:45;;;;;;;4.67;2.20;;;;;;;27.76;34.76;100665.28;1813116;77;21086;-72
2021/08/04 10:05:25;;;;;;;3.87;1.90;;;;;;;27.98;35.25;100662.28;1808065;77;21082;-71
2021/08/04 10:08:10;;;;;;;3.37;2.10;;;;;;;28.08;34.38;100653.39;1833229;77;21083;-70
2021/08/04 10:10:45;;;;;;;2.77;1.90;;;;;;;28.11;34.40;100651.86;1782361;78;21078;-71
2021/08/04 10:13:14;;;;;;;3.43;1.70;;;;;;;28.08;33.75;100650.64;1819075;77;20995;-70
2021/08/04 10:15:45;;;;;;;3.80;2.00;;;;;;;28.11;34.16;100649.89;1779739;79;21045;-71
2021/08/04 10:18:27;;;;;;;4.90;2.10;;;;;;;28.10;34.22;100652.44;1764721;80;21502;-70
2021/08/04 10:20:57;;;;;;;5.15;2.10;;;;;;;28.13;33.96;100649.51;1777388;78;21041;-70
2021/08/04 10:23:25;;;;;;;4.40;2.20;;;;;;;28.23;35.73;100652.96;1798848;78;21182;-71
2021/08/04 10:25:56;;;;;;;4.53;2.20;;;;;;;28.27;34.70;100649.70;1808068;79;21152;-71
2021/08/04 10:28:25;;;;;;;;;;;;;;;28.38;34.63;100650.59;1779034;79;21058;-71
2021/08/04 10:30:52;;;;;;;4.53;2.07;;;;;;;28.50;34.20;100650.37;1798101;78;20203;-71
2021/08/04 10:33:18;;;;;;;3.80;2.13;;;;;;;28.58;32.21;100642.98;1795716;78;21049;-70
2021/08/04 10:35:52;;;;;;;4.70;2.20;;;;;;;28.69;31.83;100640.33;1790865;78;21561;-71
2021/08/04 10:38:22;;;;;;;2.70;1.80;;;;;;;28.65;31.55;100638.92;1777165;78;21082;-70
2021/08/04 10:41:16;;;;;;;3.53;2.27;;;;;;;28.65;31.44;100636.17;1788595;80;21042;-69
2021/08/04 10:43:53;;;;;;;4.30;2.17;;;;;;;28.73;31.94;100643.33;1777430;80;21050;-70
2021/08/04 10:46:34;;;;;;;3.60;2.00;;;;;;;28.73;32.02;100636.45;1806525;78;21067;-71
2021/08/04 10:49:10;;;;;;;2.97;1.77;;;;;;;28.74;33.21;100634.50;1812221;78;21608;-70
2021/08/04 10:51:56;;;;;;;4.80;2.27;;;;;;;28.84;32.92;100626.14;1781732;79;21150;-71
2021/08/04 10:54:23;;;;;;;4.97;2.30;;;;;;;28.97;33.09;100630.97;1777144;80;21011;-69
2021/08/04 10:56:55;;;;;;;3.83;2.07;;;;;;;29.07;33.35;100624.00;1781237;79;21035;-71
2021/08/04 10:59:32;;;;;;;4.53;2.30;;;;;;;29.02;33.34;100631.22;1782906;80;21041;-69
2021/08/04 11:02:09;;;;;;;3.65;1.87;;;;;;;29.10;33.42;100625.20;1775525;79;21015;-70
2021/08/04 11:04:45;;;;;;;4.28;2.05;;;;;;;29.17;33.39;100621.91;1784702;79;21122;-69
2021/08/04 11:07:17;;;;;;;5.00;2.20;;;;;;;29.13;33.81;100623.85;1788732;78;21133;-71
2021/08/04 11:09:51;;;;;;;3.62;2.05;;;;;;;29.10;33.67;100627.95;1765787;80;21070;-71
2021/08/04 11:12:23;;;;;;;4.60;2.40;;;;;;;29.15;32.78;100628.95;1747369;79;21078;-71
2021/08/04 11:15:01;;;;;;;5.42;2.40;;;;;;;29.08;31.73;100623.41;1756599;79;21766;-70
2021/08/04 11:17:30;;;;;;;3.80;2.30;;;;;;;29.08;32.87;100621.45;1775082;79;21112;-70
2021/08/04 11:20:03;;;;;;;3.50;2.17;;;;;;;29.10;33.65;100618.33;1769798;79;20956;-70
2021/08/04 11:22:41;;;;;;;5.10;2.60;;;;;;;29.15;32.92;100621.49;1760983;79;21007;-69
2021/08/04 11:25:31;;;;;;;4.47;2.42;;;;;;;29.11;32.58;100619.31;1765501;79;20995;-70
2021/08/04 11:28:04;;;;;;;6.08;2.50;;;;;;;29.05;32.71;100624.17;1758272;79;21518;-70
2021/08/04 11:30:39;;;;;;;5.60;2.40;;;;;;;28.96;32.97;100620.36;1793646;78;21309;-71
2021/08/04 11:33:30;;;;;;;4.08;2.35;;;;;;;28.96;33.64;100620.36;1788324;78;21069;-71
2021/08/04 11:36:10;;;;;;;4.78;2.30;;;;;;;28.97;33.67;100619.18;1800038;78;21489;-71
2021/08/04 11:38:41;;;;;;;6.35;2.62;;;;;;;29.05;33.70;100618.08;1770640;80;20992;-70